createdAt,value
2019-03-21T00:02:17.321Z,13.13
2019-03-21T00:04:49.249Z,13.83
2019-03-21T00:07:19.175Z,13.03
2019-03-21T00:10:41.652Z,14.23
2019-03-21T00:13:12.002Z,12.97
2019-03-21T00:15:46.205Z,13.47
2019-03-21T00:18:16.299Z,11.00
2019-03-21T00:20:46.439Z,14.97
2019-03-21T00:23:16.106Z,11.70
2019-03-21T00:25:46.014Z,10.57
2019-03-21T00:28:15.911Z,9.00
2019-03-21T00:30:45.664Z,11.83
2019-03-21T00:33:15.381Z,13.73
2019-03-21T00:35:45.125Z,12.50
2019-03-21T00:38:14.791Z,12.73
2019-03-21T00:40:44.538Z,12.87
2019-03-21T00:43:14.705Z,14.83
2019-03-21T00:45:44.679Z,12.57
2019-03-21T00:48:15.996Z,9.77
2019-03-21T00:50:45.809Z,12.37
2019-03-21T00:53:15.452Z,12.80
2019-03-21T00:55:45.976Z,12.07
2019-03-21T00:58:15.742Z,12.67
2019-03-21T01:00:49.246Z,10.50
2019-03-21T01:03:19.333Z,15.93
2019-03-21T01:06:00.317Z,13.20
2019-03-21T01:08:46.415Z,13.73
2019-03-21T01:11:36.039Z,14.13
2019-03-21T01:14:05.799Z,13.67
2019-03-21T01:16:35.522Z,10.83
2019-03-21T01:19:05.676Z,12.37
2019-03-21T01:21:36.194Z,15.07
2019-03-21T01:24:06.177Z,10.00
2019-03-21T01:26:36.398Z,12.80
2019-03-21T01:29:06.091Z,11.23
2019-03-21T01:31:35.921Z,13.23
2019-03-21T01:34:07.910Z,10.97
2019-03-21T01:36:37.579Z,11.13
2019-03-21T01:39:08.430Z,13.77
2019-03-21T01:41:38.219Z,16.00
2019-03-21T01:44:07.951Z,11.60
2019-03-21T01:46:40.557Z,14.13
2019-03-21T01:49:12.254Z,10.83
2019-03-21T01:51:47.278Z,9.93
2019-03-21T01:54:17.127Z,11.97
2019-03-21T01:56:46.842Z,14.73
2019-03-21T01:59:19.864Z,14.40
2019-03-21T02:01:49.555Z,10.80
2019-03-21T02:04:19.264Z,11.80
2019-03-21T02:06:50.170Z,9.83
2019-03-21T02:09:20.038Z,10.17
2019-03-21T02:11:49.768Z,12.80
2019-03-21T02:14:19.473Z,11.90
2019-03-21T02:16:49.222Z,14.17
2019-03-21T02:19:20.119Z,12.53
2019-03-21T02:21:49.872Z,12.97
2019-03-21T02:24:19.574Z,10.40
2019-03-21T02:26:49.320Z,11.70
2019-03-21T02:29:19.281Z,14.03
2019-03-21T02:31:49.010Z,16.00
2019-03-21T02:34:18.698Z,14.00
2019-03-21T02:36:48.981Z,14.03
2019-03-21T02:39:18.700Z,9.67
2019-03-21T02:41:48.548Z,11.40
2019-03-21T02:44:18.591Z,11.67
2019-03-21T02:46:51.068Z,11.03
2019-03-21T02:49:20.910Z,12.63
2019-03-21T02:51:53.992Z,11.27
2019-03-21T02:54:23.719Z,12.73
2019-03-21T02:56:53.989Z,11.47
2019-03-21T02:59:23.709Z,13.80
2019-03-21T03:01:53.963Z,12.73
2019-03-21T03:04:23.730Z,15.97
2019-03-21T03:06:55.564Z,16.43
2019-03-21T03:09:25.324Z,10.93
2019-03-21T03:11:55.951Z,11.90
2019-03-21T03:14:25.656Z,12.03
2019-03-21T03:16:56.156Z,13.83
2019-03-21T03:19:26.263Z,13.80
2019-03-21T03:21:55.946Z,11.13
2019-03-21T03:24:27.776Z,16.77
2019-03-21T03:26:57.505Z,14.33
2019-03-21T03:29:29.879Z,13.17
2019-03-21T03:32:00.059Z,15.33
2019-03-21T03:34:29.781Z,14.93
2019-03-21T03:36:59.891Z,11.63
2019-03-21T03:39:29.641Z,17.70
2019-03-21T03:41:59.311Z,14.90
2019-03-21T03:44:28.995Z,12.17
2019-03-21T03:46:58.720Z,14.53
2019-03-21T03:49:28.372Z,11.73
2019-03-21T03:51:58.378Z,14.20
2019-03-21T03:54:28.171Z,12.37
2019-03-21T03:56:57.679Z,15.20
2019-03-21T03:59:27.420Z,13.10
2019-03-21T04:01:57.162Z,12.67
2019-03-21T04:04:27.089Z,16.03
2019-03-21T04:06:56.834Z,14.13
2019-03-21T04:09:28.999Z,15.53
2019-03-21T04:11:58.820Z,14.43
2019-03-21T04:14:28.546Z,15.33
2019-03-21T04:16:58.198Z,14.37
2019-03-21T04:19:27.968Z,17.13
2019-03-21T04:21:57.636Z,15.50
2019-03-21T04:24:27.511Z,15.27
2019-03-21T04:26:57.373Z,16.03
2019-03-21T04:29:27.082Z,18.30
2019-03-21T04:31:56.818Z,16.13
2019-03-21T04:34:26.502Z,14.63
2019-03-21T04:36:56.039Z,15.73
2019-03-21T04:39:25.851Z,22.67
2019-03-21T04:41:55.638Z,16.80
2019-03-21T04:44:25.651Z,18.70
2019-03-21T04:46:55.599Z,19.93
2019-03-21T04:49:25.644Z,15.87
2019-03-21T04:51:55.484Z,20.47
2019-03-21T04:54:25.154Z,17.73
2019-03-21T04:56:54.894Z,16.67
2019-03-21T04:59:24.653Z,17.50
2019-03-21T05:01:54.396Z,17.80
2019-03-21T05:04:24.448Z,16.83
2019-03-21T05:06:54.277Z,16.63
2019-03-21T05:09:24.285Z,18.60
2019-03-21T05:11:55.599Z,16.27
2019-03-21T05:14:25.340Z,19.23
2019-03-21T05:16:55.024Z,19.17
2019-03-21T05:19:25.136Z,19.87
2019-03-21T05:21:58.736Z,18.80
2019-03-21T05:24:28.755Z,17.30
2019-03-21T05:27:17.064Z,20.27
2019-03-21T05:29:53.422Z,18.60
2019-03-21T05:32:23.471Z,22.07
2019-03-21T05:34:55.629Z,19.43
2019-03-21T05:37:25.355Z,16.20
2019-03-21T05:39:55.962Z,21.07
2019-03-21T05:42:26.508Z,18.00
2019-03-21T05:44:59.284Z,19.97
2019-03-21T05:47:29.148Z,19.57
2019-03-21T05:49:58.926Z,19.27
2019-03-21T05:52:29.240Z,15.60
2019-03-21T05:54:58.998Z,16.00
2019-03-21T05:57:29.009Z,20.73
2019-03-21T06:00:00.762Z,20.47
2019-03-21T06:02:33.560Z,18.83
2019-03-21T06:05:03.249Z,18.47
2019-03-21T06:07:43.810Z,19.40
2019-03-21T06:10:17.911Z,17.73
2019-03-21T06:12:48.272Z,16.17
2019-03-21T06:15:21.512Z,17.87
2019-03-21T06:18:15.950Z,21.63
2019-03-21T06:21:35.127Z,19.47
2019-03-21T06:24:27.409Z,19.57
2019-03-21T06:27:14.091Z,17.67
2019-03-21T06:29:36.108Z,17.17
2019-03-21T06:32:05.861Z,18.40
2019-03-21T06:34:35.530Z,16.63
2019-03-21T06:37:06.831Z,17.20
2019-03-21T06:39:36.609Z,18.10
2019-03-21T06:42:06.387Z,16.70
2019-03-21T06:44:36.195Z,17.20
2019-03-21T06:47:06.002Z,15.93
2019-03-21T06:49:35.715Z,12.27
2019-03-21T06:52:05.536Z,16.53
2019-03-21T06:54:35.246Z,18.50
2019-03-21T06:57:05.095Z,16.73
2019-03-21T06:59:34.802Z,16.37
2019-03-21T07:02:04.685Z,19.07
2019-03-21T07:04:34.703Z,21.33
2019-03-21T07:07:08.598Z,14.37
2019-03-21T07:09:38.623Z,14.17
2019-03-21T07:12:08.483Z,11.67
2019-03-21T07:14:38.271Z,19.80
2019-03-21T07:17:07.967Z,12.47
2019-03-21T07:19:38.062Z,14.03
2019-03-21T07:22:07.799Z,15.67
2019-03-21T07:24:38.579Z,12.17
2019-03-21T07:27:08.330Z,14.07
2019-03-21T07:29:41.107Z,15.13
2019-03-21T07:32:10.860Z,12.30
2019-03-21T07:34:42.770Z,13.07
2019-03-21T07:37:12.532Z,15.27
2019-03-21T07:39:42.289Z,17.37
2019-03-21T07:42:12.009Z,16.40
2019-03-21T07:44:41.826Z,17.00
2019-03-21T07:47:13.343Z,14.03
2019-03-21T07:49:43.239Z,14.23
2019-03-21T07:52:13.063Z,15.10
2019-03-21T07:54:42.828Z,16.17
2019-03-21T07:57:12.563Z,16.53
2019-03-21T07:59:42.272Z,16.57
2019-03-21T08:02:12.011Z,14.80
2019-03-21T08:04:42.044Z,15.67
2019-03-21T08:07:11.740Z,15.83
2019-03-21T08:09:41.955Z,17.70
2019-03-21T08:12:12.181Z,27.23
2019-03-21T08:14:43.620Z,15.53
2019-03-21T08:17:16.905Z,17.17
2019-03-21T08:19:46.615Z,14.53
2019-03-21T08:22:18.725Z,14.00
2019-03-21T08:24:48.416Z,14.00
2019-03-21T08:27:20.981Z,13.27
2019-03-21T08:29:51.097Z,16.17
2019-03-21T08:32:21.233Z,17.50
2019-03-21T08:34:50.982Z,16.23
2019-03-21T08:37:20.765Z,16.13
2019-03-21T08:40:09.281Z,21.37
2019-03-21T08:42:39.314Z,13.47
2019-03-21T08:45:09.405Z,17.63
2019-03-21T08:47:39.120Z,14.33
2019-03-21T08:50:09.047Z,13.80
2019-03-21T08:52:39.833Z,15.57
2019-03-21T08:55:12.721Z,14.67
2019-03-21T08:57:42.547Z,13.93
2019-03-21T09:00:14.095Z,13.17
2019-03-21T09:02:43.902Z,15.13
2019-03-21T09:05:13.797Z,12.50
2019-03-21T09:07:43.595Z,14.30
2019-03-21T09:10:13.442Z,16.83
2019-03-21T09:12:43.266Z,18.30
2019-03-21T09:15:16.337Z,15.87
2019-03-21T09:17:46.872Z,15.90
2019-03-21T09:20:18.818Z,18.73
2019-03-21T09:22:48.118Z,16.67
2019-03-21T09:25:18.148Z,14.20
2019-03-21T09:27:47.938Z,13.97
2019-03-21T09:30:36.508Z,16.50
2019-03-21T09:33:06.211Z,16.57
2019-03-21T09:35:36.012Z,18.13
2019-03-21T09:38:05.794Z,16.50
2019-03-21T09:40:35.554Z,15.53
2019-03-21T09:43:06.311Z,16.17
2019-03-21T09:45:36.060Z,20.93
2019-03-21T09:48:05.925Z,20.30
2019-03-21T09:50:35.669Z,15.80
2019-03-21T09:53:05.482Z,14.63
2019-03-21T09:55:35.395Z,14.33
2019-03-21T09:58:05.314Z,14.40
2019-03-21T10:00:35.966Z,15.07
2019-03-21T10:03:06.877Z,15.77
2019-03-21T10:05:36.592Z,15.00
2019-03-21T10:08:06.819Z,16.17
2019-03-21T10:10:36.534Z,15.00
2019-03-21T10:13:06.733Z,14.13
2019-03-21T10:15:39.255Z,17.10
2019-03-21T10:18:09.277Z,16.00
2019-03-21T10:20:39.035Z,16.97
2019-03-21T10:23:08.799Z,18.93
2019-03-21T10:25:38.575Z,18.13
2019-03-21T10:28:08.331Z,16.43
2019-03-21T10:30:39.528Z,14.20
2019-03-21T10:33:10.599Z,16.10
2019-03-21T10:35:40.431Z,14.73
2019-03-21T10:38:10.238Z,15.10
2019-03-21T10:40:40.320Z,17.67
2019-03-21T10:43:10.685Z,17.27
2019-03-21T10:45:40.583Z,15.03
2019-03-21T10:48:10.517Z,14.33
2019-03-21T10:50:40.950Z,15.07
2019-03-21T10:53:11.092Z,12.53
2019-03-21T10:55:40.811Z,16.03
2019-03-21T10:58:10.644Z,13.87
2019-03-21T11:00:40.700Z,16.60
2019-03-21T11:03:10.486Z,16.90
2019-03-21T11:05:41.319Z,16.33
2019-03-21T11:08:11.028Z,14.50
2019-03-21T11:10:40.773Z,16.17
2019-03-21T11:13:10.559Z,23.13
2019-03-21T11:15:40.327Z,13.13
2019-03-21T11:18:10.191Z,16.40
2019-03-21T11:20:40.879Z,14.93
2019-03-21T11:23:10.767Z,18.37
2019-03-21T11:25:40.826Z,15.47
2019-03-21T11:28:12.401Z,12.77
2019-03-21T11:30:45.793Z,15.20
2019-03-21T11:33:15.750Z,13.67
2019-03-21T11:35:47.223Z,14.57
2019-03-21T11:38:17.758Z,13.87
2019-03-21T11:40:48.616Z,17.47
2019-03-21T11:43:20.057Z,16.47
2019-03-21T11:45:49.898Z,13.23
2019-03-21T11:48:19.759Z,12.20
2019-03-21T11:50:49.590Z,15.93
2019-03-21T11:53:19.586Z,13.07
2019-03-21T11:55:49.432Z,15.57
2019-03-21T11:58:19.205Z,17.47
2019-03-21T12:00:49.068Z,11.27
2019-03-21T12:03:18.861Z,14.33
2019-03-21T12:05:48.615Z,14.73
2019-03-21T12:08:18.382Z,12.37
2019-03-21T12:10:48.154Z,13.90
2019-03-21T12:15:47.654Z,13.33
2019-03-21T12:18:17.368Z,11.20
2019-03-21T12:20:47.150Z,13.17
2019-03-21T12:23:16.864Z,12.93
2019-03-21T12:25:46.602Z,14.47
2019-03-21T12:28:16.364Z,13.07
2019-03-21T12:30:47.273Z,11.83
2019-03-21T12:33:16.989Z,10.20
2019-03-21T12:35:46.749Z,10.17
2019-03-21T12:38:17.450Z,10.20
2019-03-21T12:40:47.158Z,10.40
2019-03-21T12:43:16.943Z,11.00
2019-03-21T12:45:46.702Z,10.43
2019-03-21T12:48:16.706Z,12.70
2019-03-21T12:50:46.630Z,10.20
2019-03-21T12:53:17.142Z,14.37
2019-03-21T12:55:46.874Z,9.90
2019-03-21T12:58:16.569Z,7.63
2019-03-21T13:00:46.482Z,7.67
2019-03-21T13:03:16.504Z,10.37
2019-03-21T13:05:46.294Z,10.33
2019-03-21T13:08:16.333Z,12.63
2019-03-21T13:10:48.949Z,10.83
2019-03-21T13:13:18.659Z,10.30
2019-03-21T13:15:48.929Z,12.90
2019-03-21T13:18:21.425Z,12.63
2019-03-21T13:20:51.176Z,10.03
2019-03-21T13:23:21.319Z,11.03
2019-03-21T13:25:51.317Z,10.63
2019-03-21T13:28:23.139Z,11.27
2019-03-21T13:30:53.012Z,14.30
2019-03-21T13:33:22.787Z,11.40
2019-03-21T13:35:52.484Z,17.43
2019-03-21T13:38:22.265Z,11.30
2019-03-21T13:40:51.994Z,11.70
2019-03-21T13:43:24.327Z,11.33
2019-03-21T13:45:56.073Z,9.50
2019-03-21T13:48:26.097Z,11.17
2019-03-21T13:50:55.843Z,9.53
2019-03-21T13:53:25.601Z,10.27
2019-03-21T13:55:55.313Z,10.37
2019-03-21T13:58:24.998Z,11.67
2019-03-21T14:00:54.695Z,12.67
2019-03-21T14:03:25.532Z,9.13
2019-03-21T14:05:55.532Z,9.27
2019-03-21T14:08:25.278Z,11.07
2019-03-21T14:10:55.037Z,10.90
2019-03-21T14:13:24.742Z,9.50
2019-03-21T14:16:13.242Z,9.10
2019-03-21T14:18:43.414Z,10.40
2019-03-21T14:21:14.141Z,12.03
2019-03-21T14:23:44.697Z,9.70
2019-03-21T14:26:14.472Z,12.97
2019-03-21T14:28:46.221Z,9.30
2019-03-21T14:31:15.971Z,11.07
2019-03-21T14:33:45.703Z,9.73
2019-03-21T14:36:15.522Z,12.30
2019-03-21T14:38:46.098Z,10.73
2019-03-21T14:41:18.654Z,12.23
2019-03-21T14:43:50.948Z,12.43
2019-03-21T14:46:26.742Z,13.87
2019-03-21T14:48:57.655Z,12.93
2019-03-21T14:51:27.338Z,13.43
2019-03-21T14:53:57.082Z,10.00
2019-03-21T14:56:26.857Z,11.97
2019-03-21T14:58:56.567Z,9.47
2019-03-21T15:01:26.614Z,10.80
2019-03-21T15:03:56.785Z,10.77
2019-03-21T15:06:26.624Z,14.17
2019-03-21T15:08:57.175Z,14.60
2019-03-21T15:11:26.938Z,14.40
2019-03-21T15:13:56.703Z,11.27
2019-03-21T15:16:26.944Z,12.17
2019-03-21T15:18:56.681Z,12.67
2019-03-21T15:21:29.318Z,14.80
2019-03-21T15:23:59.924Z,13.17
2019-03-21T15:26:32.576Z,16.40
2019-03-21T15:29:02.321Z,13.77
2019-03-21T15:31:34.869Z,13.43
2019-03-21T15:34:04.632Z,13.93
2019-03-21T15:36:34.381Z,16.93
2019-03-21T15:39:05.478Z,15.00
2019-03-21T15:41:35.287Z,14.03
2019-03-21T15:44:05.855Z,12.70
2019-03-21T15:46:36.567Z,14.03
2019-03-21T15:49:06.423Z,14.00
2019-03-21T15:51:36.451Z,14.30
2019-03-21T15:54:06.927Z,13.40
2019-03-21T15:56:36.778Z,13.80
2019-03-21T15:59:06.581Z,14.77
2019-03-21T16:01:36.360Z,13.77
2019-03-21T16:04:06.204Z,15.23
2019-03-21T16:06:38.009Z,15.73
2019-03-21T16:09:11.779Z,14.93
2019-03-21T16:11:41.588Z,13.97
2019-03-21T16:14:11.570Z,14.93
2019-03-21T16:16:41.655Z,12.77
2019-03-21T16:19:11.432Z,11.97
2019-03-21T16:21:42.351Z,12.43
2019-03-21T16:24:12.062Z,15.37
2019-03-21T16:26:41.934Z,14.30
2019-03-21T16:29:11.749Z,11.00
2019-03-21T16:31:41.913Z,12.63
2019-03-21T16:34:11.735Z,13.70
2019-03-21T16:36:41.501Z,12.87
2019-03-21T16:39:11.307Z,15.43
2019-03-21T16:41:41.161Z,13.03
2019-03-21T16:44:10.913Z,15.43
2019-03-21T16:46:40.946Z,13.83
2019-03-21T16:49:10.789Z,13.70
2019-03-21T16:51:40.656Z,13.90
2019-03-21T16:54:16.962Z,13.03
2019-03-21T16:56:42.262Z,16.17
2019-03-21T16:59:12.103Z,19.50
2019-03-21T17:01:42.132Z,15.20
2019-03-21T17:04:11.867Z,16.53
2019-03-21T17:06:45.167Z,15.17
2019-03-21T17:09:15.270Z,17.17
2019-03-21T17:11:45.203Z,16.77
2019-03-21T17:14:15.057Z,16.20
2019-03-21T17:16:44.992Z,17.17
2019-03-21T17:19:15.232Z,17.30
2019-03-21T17:21:45.299Z,16.43
2019-03-21T17:24:15.023Z,20.27
2019-03-21T17:26:48.302Z,17.43
2019-03-21T17:29:18.077Z,17.53
2019-03-21T17:32:06.644Z,16.83
2019-03-21T17:34:36.477Z,18.13
2019-03-21T17:37:06.245Z,16.73
2019-03-21T17:39:36.942Z,15.50
2019-03-21T17:42:10.827Z,17.00
2019-03-21T17:44:41.311Z,15.33
2019-03-21T17:47:12.192Z,20.40
2019-03-21T17:49:45.509Z,23.27
2019-03-21T17:52:15.191Z,16.20
2019-03-21T17:54:45.645Z,14.93
2019-03-21T17:57:16.086Z,16.77
2019-03-21T17:59:48.801Z,16.43
2019-03-21T18:02:18.948Z,15.80
2019-03-21T18:04:48.735Z,17.80
2019-03-21T18:07:18.882Z,17.57
2019-03-21T18:09:49.043Z,16.77
2019-03-21T18:12:21.336Z,19.10
2019-03-21T18:14:51.138Z,18.97
2019-03-21T18:17:23.164Z,18.37
2019-03-21T18:19:52.896Z,20.07
2019-03-21T18:22:22.706Z,22.93
2019-03-21T18:24:54.012Z,18.87
2019-03-21T18:27:27.130Z,20.47
2019-03-21T18:29:56.946Z,19.27
2019-03-21T18:32:27.093Z,20.13
2019-03-21T18:34:56.882Z,17.10
2019-03-21T18:37:26.676Z,23.70
2019-03-21T18:39:56.484Z,22.77
2019-03-21T18:42:27.117Z,21.23
2019-03-21T18:44:58.159Z,20.43
2019-03-21T18:47:28.147Z,20.80
2019-03-21T18:50:01.509Z,28.50
2019-03-21T18:52:31.511Z,20.47
2019-03-21T18:55:06.565Z,22.17
2019-03-21T18:57:36.136Z,22.97
2019-03-21T19:00:06.601Z,24.03
2019-03-21T19:02:36.499Z,23.10
2019-03-21T19:05:07.008Z,26.83
2019-03-21T19:07:36.830Z,27.03
2019-03-21T19:10:07.738Z,40.00
2019-03-21T19:12:37.548Z,33.97
2019-03-21T19:15:10.278Z,23.57
2019-03-21T19:17:40.324Z,28.20
2019-03-21T19:20:10.541Z,27.80
2019-03-21T19:22:40.603Z,27.77
2019-03-21T19:25:18.432Z,27.37
2019-03-21T19:27:45.451Z,32.43
2019-03-21T19:30:15.358Z,32.57
2019-03-21T19:32:56.501Z,35.77
2019-03-21T19:35:40.877Z,28.50
2019-03-21T19:38:12.147Z,25.37
2019-03-21T19:40:46.057Z,23.97
2019-03-21T19:43:18.312Z,26.50
2019-03-21T19:45:49.636Z,25.57
2019-03-21T19:48:20.425Z,29.53
2019-03-21T19:50:50.456Z,29.03
2019-03-21T19:53:21.254Z,35.07
2019-03-21T19:55:51.645Z,25.63
2019-03-21T19:58:24.759Z,27.07
2019-03-21T20:00:55.991Z,32.63
2019-03-21T20:03:28.462Z,27.83
2019-03-21T20:06:01.246Z,26.97
2019-03-21T20:08:32.727Z,29.63
2019-03-21T20:11:05.855Z,25.60
2019-03-21T20:13:35.899Z,23.90
2019-03-21T20:16:07.477Z,23.10
2019-03-21T20:18:37.618Z,27.80
2019-03-21T20:21:10.584Z,23.80
2019-03-21T20:23:41.340Z,23.10
2019-03-21T20:26:11.192Z,26.97
2019-03-21T20:28:47.973Z,24.57
2019-03-21T20:31:18.103Z,22.90
2019-03-21T20:33:50.233Z,25.97
2019-03-21T20:36:22.697Z,26.73
2019-03-21T20:38:52.810Z,26.90
2019-03-21T20:41:23.133Z,25.47
2019-03-21T20:43:56.500Z,28.80
2019-03-21T20:46:29.353Z,26.87
2019-03-21T20:48:57.954Z,30.43
2019-03-21T20:51:30.794Z,28.80
2019-03-21T20:54:01.773Z,26.53
2019-03-21T20:56:31.547Z,24.43
2019-03-21T20:59:01.420Z,26.17
2019-03-21T21:01:33.029Z,25.07
2019-03-21T21:04:03.795Z,28.47
2019-03-21T21:06:33.519Z,27.37
2019-03-21T21:09:03.905Z,27.17
2019-03-21T21:11:35.191Z,24.77
2019-03-21T21:14:05.130Z,26.77
2019-03-21T21:16:36.074Z,31.00
2019-03-21T21:19:07.869Z,28.23
2019-03-21T21:21:39.158Z,30.07
2019-03-21T21:24:09.172Z,30.37
2019-03-21T21:26:39.267Z,27.60
2019-03-21T21:29:09.050Z,30.77
2019-03-21T21:31:38.888Z,31.33
2019-03-21T21:34:08.725Z,26.57
2019-03-21T21:36:38.696Z,31.87
2019-03-21T21:39:09.226Z,33.23
2019-03-21T21:41:39.329Z,29.90
2019-03-21T21:44:09.401Z,33.27
2019-03-21T21:46:39.291Z,29.47
2019-03-21T21:49:09.180Z,32.07
2019-03-21T21:51:41.495Z,34.27
2019-03-21T21:54:14.435Z,34.07
2019-03-21T21:56:44.117Z,33.70
2019-03-21T21:59:13.901Z,35.67
2019-03-21T22:01:43.707Z,34.27
2019-03-21T22:04:13.659Z,32.30
2019-03-21T22:06:43.572Z,30.83
2019-03-21T22:09:13.450Z,31.93
2019-03-21T22:11:43.225Z,36.17
2019-03-21T22:14:12.954Z,36.43
2019-03-21T22:16:42.696Z,31.13
2019-03-21T22:19:12.446Z,32.30
2019-03-21T22:21:42.199Z,33.63
2019-03-21T22:24:12.016Z,29.10
2019-03-21T22:26:42.319Z,30.90
2019-03-21T22:29:12.210Z,28.07
2019-03-21T22:31:41.988Z,34.03
2019-03-21T22:34:12.086Z,32.70
2019-03-21T22:36:55.795Z,33.57
2019-03-21T22:39:25.543Z,30.10
2019-03-21T22:41:55.326Z,29.77
2019-03-21T22:44:26.041Z,30.43
2019-03-21T22:46:55.713Z,29.37
2019-03-21T22:49:25.450Z,33.63
2019-03-21T22:51:55.233Z,31.40
2019-03-21T22:54:25.020Z,30.53
2019-03-21T22:56:54.774Z,31.60
2019-03-21T22:59:24.524Z,29.13
2019-03-21T23:01:54.407Z,29.27
2019-03-21T23:04:24.244Z,32.50
2019-03-21T23:06:54.200Z,31.73
2019-03-21T23:09:23.888Z,31.53
2019-03-21T23:11:53.694Z,34.77
2019-03-21T23:14:23.410Z,29.00
2019-03-21T23:16:53.211Z,32.20
2019-03-21T23:19:23.091Z,29.90
2019-03-21T23:21:53.035Z,30.47
2019-03-21T23:24:22.897Z,28.83
2019-03-21T23:26:53.336Z,28.57
2019-03-21T23:29:23.890Z,32.50
2019-03-21T23:31:53.623Z,29.93
2019-03-21T23:34:23.435Z,33.00
2019-03-21T23:36:53.148Z,28.83
2019-03-21T23:39:22.898Z,31.60
2019-03-21T23:41:52.966Z,30.97
2019-03-21T23:44:22.769Z,29.40
2019-03-21T23:46:52.502Z,31.47
2019-03-21T23:49:22.291Z,33.63
2019-03-21T23:51:54.061Z,34.47
2019-03-21T23:54:23.772Z,29.43
2019-03-21T23:57:04.009Z,28.03
2019-03-21T23:59:26.034Z,33.73
